Time;durP1;ratioP1;P1;durP2;ratioP2;P2;SDS_P1;SDS_P2;PMS_P1;PMS_P2;Temp;Humidity;BMP_temperature;BMP_pressure;BME280_temperature;BME280_humidity;BME280_pressure;Samples;Min_cycle;Max_cycle;Signal;HPM_P1;HPM_P2
2023/11/18 00:01:59;;;;;;;16.23;9.27;;;;;;;-145.63;47.85;39145.50;5006848;28;20030;-68
2023/11/18 00:04:25;;;;;;;15.80;8.55;;;;;;;-145.63;48.01;39161.13;4993865;28;20030;-68
2023/11/18 00:06:51;;;;;;;12.32;8.07;;;;;;;-145.63;47.68;39149.41;5005622;28;20030;-68
2023/11/18 00:09:17;;;;;;;11.50;8.40;;;;;;;-145.63;47.48;39049.66;4999690;28;20023;-68
2023/11/18 00:11:43;;;;;;;13.40;8.15;;;;;;;-145.63;47.82;39020.34;5004732;28;20050;-68
2023/11/18 00:14:13;;;;;;;14.02;8.18;;;;;;;-145.63;47.59;39127.91;5004383;28;20027;-66
2023/11/18 00:16:38;;;;;;;12.93;7.95;;;;;;;-145.63;47.73;39167.00;5009962;28;20029;-66
2023/11/18 00:19:05;;;;;;;11.30;8.32;;;;;;;-145.63;47.79;39137.69;5005646;28;20214;-68
2023/11/18 00:21:31;;;;;;;12.00;8.65;;;;;;;-145.63;47.93;39153.31;5004055;28;20050;-68
2023/11/18 00:23:57;;;;;;;12.90;8.18;;;;;;;-145.63;48.37;39141.59;4997568;28;20018;-68
2023/11/18 00:26:22;;;;;;;12.45;8.43;;;;;;;-145.63;47.98;39125.94;5004934;28;20056;-68
2023/11/18 00:28:48;;;;;;;15.43;8.45;;;;;;;-145.63;47.83;39149.41;4996579;28;20038;-69
2023/11/18 00:31:14;;;;;;;14.23;9.25;;;;;;;-145.63;48.02;39153.31;5003329;28;20034;-66
2023/11/18 00:33:40;;;;;;;11.77;8.93;;;;;;;-145.63;47.81;39143.53;5015840;28;20274;-68
2023/11/18 00:36:06;;;;;;;14.15;8.52;;;;;;;-145.63;48.45;39161.13;5018971;28;20029;-67
2023/11/18 00:38:32;;;;;;;14.15;8.60;;;;;;;-145.63;48.08;39141.59;5023510;28;20026;-68
2023/11/18 00:40:58;;;;;;;13.90;8.40;;;;;;;-145.63;47.83;39192.44;5005087;28;20077;-68
2023/11/18 00:43:24;;;;;;;10.80;7.80;;;;;;;-145.63;48.06;39270.66;5005188;28;20113;-67
2023/11/18 00:45:51;;;;;;;14.57;8.75;;;;;;;-145.63;47.99;39151.38;5000584;28;20034;-68
2023/11/18 00:48:17;;;;;;;10.20;7.60;;;;;;;-145.63;47.97;39155.28;4987598;28;20049;-68
2023/11/18 00:50:42;;;;;;;13.52;8.40;;;;;;;-145.63;47.83;39063.34;5003506;28;20097;-67
2023/11/18 00:53:09;;;;;;;11.93;7.90;;;;;;;-145.63;47.91;39125.94;5005114;28;20062;-69
2023/11/18 00:55:36;;;;;;;13.20;7.22;;;;;;;-145.63;48.47;39116.16;5004480;28;20034;-69
2023/11/18 00:58:01;;;;;;;10.57;7.28;;;;;;;-145.63;48.68;39127.91;5004921;28;20169;-70
2023/11/18 01:00:27;;;;;;;11.13;7.70;;;;;;;-145.63;48.41;39098.56;4996627;28;20058;-69
2023/11/18 01:02:54;;;;;;;10.05;7.50;;;;;;;-145.63;48.54;39088.78;5004565;28;20026;-68
2023/11/18 01:05:20;;;;;;;8.48;6.70;;;;;;;-145.63;48.58;39118.13;5003506;28;20098;-69
2023/11/18 01:07:46;;;;;;;10.55;7.38;;;;;;;-145.63;48.46;39118.13;5004362;28;20027;-70
2023/11/18 01:10:13;;;;;;;11.43;7.00;;;;;;;-145.63;49.19;39139.63;5004879;28;20065;-70
2023/11/18 01:12:40;;;;;;;10.32;6.65;;;;;;;-145.63;48.62;39129.84;5005193;28;20085;-69
2023/11/18 01:15:07;;;;;;;10.25;6.90;;;;;;;-145.63;48.44;39145.50;5010517;28;20088;-69
2023/11/18 01:17:33;;;;;;;9.35;6.20;;;;;;;-145.63;48.43;39118.13;5006583;28;20097;-68
2023/11/18 01:20:01;;;;;;;8.73;6.43;;;;;;;-145.63;49.19;39145.50;5024028;28;20037;-68
2023/11/18 01:22:26;;;;;;;10.95;7.25;;;;;;;-145.63;48.50;39123.97;5004034;28;20033;-69
2023/11/18 01:24:52;;;;;;;15.25;7.45;;;;;;;-145.63;48.73;39118.13;5002317;28;20026;-70
2023/11/18 01:27:19;;;;;;;10.07;6.38;;;;;;;-145.63;49.12;39110.28;5002872;28;20310;-68
2023/11/18 01:29:46;;;;;;;13.05;7.07;;;;;;;-145.63;48.85;39112.25;4995040;28;20030;-68
2023/11/18 01:32:13;;;;;;;10.93;7.00;;;;;;;-145.63;48.71;39123.97;5010741;28;20037;-67
2023/11/18 01:34:40;;;;;;;8.32;6.05;;;;;;;-145.63;48.79;39125.94;5024102;28;20041;-68
2023/11/18 01:37:07;;;;;;;13.50;7.15;;;;;;;-145.63;48.97;39114.22;5004272;28;20037;-68
2023/11/18 01:39:36;;;;;;;10.77;6.43;;;;;;;-145.63;49.38;39114.22;5004110;28;20069;-67
2023/11/18 01:42:04;;;;;;;8.25;6.05;;;;;;;-145.63;49.27;39037.94;5000715;28;20022;-68
2023/11/18 01:44:31;;;;;;;11.50;6.50;;;;;;;-145.63;49.07;39131.81;5002667;28;20046;-68
2023/11/18 01:46:58;;;;;;;10.82;6.60;;;;;;;-145.63;48.98;39104.44;5003307;28;20026;-68
2023/11/18 01:49:27;;;;;;;9.52;6.90;;;;;;;-145.63;48.90;39170.91;5003910;28;20025;-69
2023/11/18 01:51:53;;;;;;;10.57;7.30;;;;;;;-145.63;49.55;39102.47;4998210;28;20326;-69
2023/11/18 01:54:21;;;;;;;9.13;6.15;;;;;;;-145.63;49.49;39123.97;5003982;28;20030;-68
2023/11/18 01:56:48;;;;;;;13.88;7.07;;;;;;;-145.63;49.34;39116.16;5003381;28;20026;-68
2023/11/18 01:59:18;;;;;;;8.68;5.63;;;;;;;-145.63;49.21;39118.13;5002296;28;20244;-69
2023/11/18 02:01:49;;;;;;;9.80;6.63;;;;;;;-145.63;49.05;39125.94;5003581;28;20056;-69
2023/11/18 02:04:16;;;;;;;9.55;6.88;;;;;;;-145.63;49.48;39122.03;5034462;28;20081;-69
2023/11/18 02:06:44;;;;;;;13.07;6.25;;;;;;;-145.63;49.32;39163.09;5002114;28;20050;-69
2023/11/18 02:09:12;;;;;;;8.57;6.47;;;;;;;-145.63;48.90;39116.16;5001853;28;20049;-68
2023/11/18 02:11:45;;;;;;;11.73;6.53;;;;;;;-145.63;49.63;39180.69;5002238;28;20037;-69
2023/11/18 02:14:16;;;;;;;9.52;7.00;;;;;;;-145.63;49.78;39000.78;5003323;28;20342;-68
2023/11/18 02:16:45;;;;;;;8.95;6.35;;;;;;;-145.63;49.25;39131.81;5003315;28;20034;-68
2023/11/18 02:19:23;;;;;;;9.95;6.35;;;;;;;-145.63;48.84;39125.94;5002176;28;20298;-69
2023/11/18 02:21:51;;;;;;;8.93;6.07;;;;;;;-145.63;49.53;39118.13;5002102;28;20030;-69
2023/11/18 02:24:33;;;;;;;8.70;6.10;;;;;;;-145.63;48.83;39192.44;4995416;28;20035;-68
2023/11/18 02:26:59;;;;;;;8.52;6.22;;;;;;;-145.63;49.39;39123.97;4997487;28;20093;-69
2023/11/18 02:29:27;;;;;;;11.75;6.25;;;;;;;-145.63;49.62;39176.78;5002678;28;20112;-69
2023/11/18 02:31:59;;;;;;;8.25;6.25;;;;;;;-145.63;49.50;39104.44;5002030;28;20036;-68
2023/11/18 02:34:28;;;;;;;11.02;6.45;;;;;;;-145.63;49.23;39125.94;5003063;28;20069;-67
2023/11/18 02:37:00;;;;;;;9.43;6.32;;;;;;;-145.63;50.07;39110.28;5002971;28;20049;-68
2023/11/18 02:39:38;;;;;;;10.48;6.55;;;;;;;-145.63;49.70;39084.88;4985389;28;20034;-67
2023/11/18 02:42:07;;;;;;;13.23;6.85;;;;;;;-145.63;50.12;39161.13;4982421;28;20030;-68
2023/11/18 02:44:36;;;;;;;8.38;6.10;;;;;;;-145.63;50.49;39120.06;4995675;28;20089;-67
2023/11/18 02:47:05;;;;;;;9.55;6.43;;;;;;;-145.63;50.22;39110.28;5002879;28;20031;-67
2023/11/18 02:49:34;;;;;;;8.30;6.55;;;;;;;-145.63;50.03;39104.44;5001171;28;20049;-67
2023/11/18 02:51:59;;;;;;;9.38;6.80;;;;;;;-145.63;49.65;39102.47;4985416;28;20045;-67
2023/11/18 02:54:26;;;;;;;11.10;7.45;;;;;;;-145.63;50.00;39120.06;4985558;28;20043;-67
2023/11/18 02:56:52;;;;;;;14.20;6.80;;;;;;;-145.63;49.98;39092.69;4993932;28;20101;-66
2023/11/18 02:59:18;;;;;;;8.63;6.25;;;;;;;-145.63;49.56;39108.34;5015588;28;20029;-68
2023/11/18 03:01:44;;;;;;;9.32;6.80;;;;;;;-145.63;49.65;39114.22;5008341;28;20054;-67
2023/11/18 03:04:10;;;;;;;9.52;6.85;;;;;;;-145.63;49.67;39098.56;5001937;28;20042;-66
2023/11/18 03:06:36;;;;;;;11.32;6.97;;;;;;;-145.63;50.06;39094.66;5002686;28;20038;-66
2023/11/18 03:09:06;;;;;;;13.15;7.15;;;;;;;-145.63;50.32;39110.28;5002261;28;20056;-66
2023/11/18 03:11:33;;;;;;;11.32;7.25;;;;;;;-145.63;50.29;39135.72;5002725;28;20298;-66
2023/11/18 03:13:59;;;;;;;11.05;7.03;;;;;;;-145.63;49.94;39137.69;5000699;28;20466;-67
2023/11/18 03:16:25;;;;;;;11.18;6.88;;;;;;;-145.63;50.06;39108.34;5002617;28;20049;-67
2023/11/18 03:18:51;;;;;;;8.52;6.13;;;;;;;-145.63;49.78;39088.78;5002823;28;20042;-67
2023/11/18 03:21:19;;;;;;;12.40;7.75;;;;;;;-145.63;50.21;39123.97;5001344;28;20050;-67
2023/11/18 03:23:45;;;;;;;10.45;7.28;;;;;;;-145.63;50.59;39127.91;4992084;28;20094;-67
2023/11/18 03:26:11;;;;;;;12.90;7.72;;;;;;;-145.63;49.73;39088.78;4999476;28;20042;-68
2023/11/18 03:28:37;;;;;;;9.75;6.60;;;;;;;-145.63;49.80;39118.13;5002600;28;20022;-67
2023/11/18 03:31:04;;;;;;;10.20;6.97;;;;;;;-145.63;49.93;39118.13;5004677;28;20192;-68
2023/11/18 03:33:30;;;;;;;9.38;6.82;;;;;;;-145.63;49.92;39118.13;4991796;28;20097;-68
2023/11/18 03:35:56;;;;;;;11.20;7.00;;;;;;;-145.63;50.10;39129.84;4993117;28;20034;-67
2023/11/18 03:38:23;;;;;;;9.45;6.25;;;;;;;-145.63;50.57;39090.75;5002907;28;20026;-67
2023/11/18 03:40:49;;;;;;;8.98;6.30;;;;;;;-145.63;50.20;39096.59;5002194;28;20030;-67
2023/11/18 03:43:15;;;;;;;9.85;6.55;;;;;;;-145.63;50.16;39090.75;4996314;28;20069;-67
2023/11/18 03:45:42;;;;;;;10.55;6.80;;;;;;;-145.63;49.95;39127.91;4997367;28;20057;-67
2023/11/18 03:48:08;;;;;;;13.25;6.78;;;;;;;-145.63;50.27;38920.59;4991287;28;20093;-66
2023/11/18 03:50:34;;;;;;;9.80;6.68;;;;;;;-145.63;50.07;39118.13;5002934;28;20030;-67
2023/11/18 03:53:01;;;;;;;12.20;7.20;;;;;;;-145.63;50.36;39127.91;5006399;28;20033;-67
2023/11/18 03:55:27;;;;;;;14.45;8.05;;;;;;;-145.63;49.72;39112.25;5005796;28;20061;-67
2023/11/18 03:57:53;;;;;;;10.27;7.22;;;;;;;-145.63;50.15;39090.75;5005819;28;20030;-67
2023/11/18 04:00:20;;;;;;;10.65;7.70;;;;;;;-145.63;50.55;39127.91;4995512;28;20066;-68
2023/11/18 04:02:46;;;;;;;13.80;7.97;;;;;;;-145.63;49.94;39090.75;5004560;28;20065;-69
2023/11/18 04:05:12;;;;;;;13.65;8.05;;;;;;;-145.63;50.76;39063.34;5004820;28;20093;-68
2023/11/18 04:07:42;;;;;;;12.73;8.70;;;;;;;-145.63;49.90;39129.84;4988220;28;20064;-69
2023/11/18 04:10:10;;;;;;;11.40;8.00;;;;;;;-145.63;50.45;39157.22;5005783;28;20030;-69
2023/11/18 04:12:39;;;;;;;11.65;8.43;;;;;;;-145.63;50.01;39122.03;5003693;28;20026;-68
2023/11/18 04:15:06;;;;;;;15.93;7.88;;;;;;;-145.63;49.65;39125.94;5003890;28;20030;-69
2023/11/18 04:17:32;;;;;;;10.73;8.25;;;;;;;-145.63;50.16;39110.28;5002620;28;20053;-66
2023/11/18 04:19:57;;;;;;;13.60;8.75;;;;;;;-145.63;49.63;39102.47;4997729;28;20038;-68
2023/11/18 04:22:24;;;;;;;11.07;8.25;;;;;;;-145.63;49.78;39108.34;5003758;28;20041;-65
2023/11/18 04:24:50;;;;;;;10.73;8.57;;;;;;;-145.63;50.84;39122.03;4992885;28;20030;-67
2023/11/18 04:27:16;;;;;;;15.70;8.32;;;;;;;-145.63;50.74;39125.94;4984389;28;20097;-67
2023/11/18 04:29:42;;;;;;;9.10;7.07;;;;;;;-145.63;50.36;39120.06;5004447;28;20046;-66
2023/11/18 04:32:08;;;;;;;15.02;8.05;;;;;;;-145.63;50.08;39122.03;5003314;28;20026;-66
2023/11/18 04:34:37;;;;;;;14.00;8.40;;;;;;;-145.63;50.15;38801.31;5005570;28;20046;-65
2023/11/18 04:37:06;;;;;;;12.80;7.88;;;;;;;-145.63;50.80;38863.88;5000898;28;20022;-68
2023/11/18 04:39:32;;;;;;;11.73;8.02;;;;;;;-145.63;51.24;39110.28;5005075;28;20086;-67
2023/11/18 04:41:58;;;;;;;12.07;7.47;;;;;;;-145.63;51.24;39071.19;5003783;28;20049;-67
2023/11/18 04:44:24;;;;;;;12.38;7.22;;;;;;;-145.63;50.76;39114.22;5005057;28;20315;-67
2023/11/18 04:46:50;;;;;;;10.20;6.45;;;;;;;-145.63;50.40;39102.47;5004638;28;20105;-68
2023/11/18 04:49:16;;;;;;;10.85;7.32;;;;;;;-145.63;50.89;39116.16;5004831;28;20029;-67
2023/11/18 04:51:41;;;;;;;11.05;7.65;;;;;;;-145.63;50.95;39125.94;5003312;28;20022;-68
2023/11/18 04:54:10;;;;;;;10.82;7.03;;;;;;;-145.63;50.84;39133.75;4997171;28;20041;-69
2023/11/18 04:56:37;;;;;;;9.55;7.53;;;;;;;-145.63;50.75;39104.44;5002523;28;20031;-68
2023/11/18 04:59:06;;;;;;;10.95;7.47;;;;;;;-145.63;50.03;39096.59;5004637;28;20026;-68
2023/11/18 05:01:32;;;;;;;14.43;7.10;;;;;;;-145.63;50.39;39129.84;5003454;28;20030;-68
2023/11/18 05:03:59;;;;;;;11.15;6.80;;;;;;;-145.63;50.55;39102.47;5002411;28;20101;-68
2023/11/18 05:06:25;;;;;;;11.07;6.50;;;;;;;-145.63;50.51;39110.28;4987300;28;20027;-69
2023/11/18 05:08:52;;;;;;;11.38;7.03;;;;;;;-145.63;50.20;39122.03;5004351;28;20053;-68
2023/11/18 05:11:18;;;;;;;10.18;6.63;;;;;;;-145.63;51.12;39120.06;5004403;28;20030;-68
2023/11/18 05:13:44;;;;;;;12.10;6.95;;;;;;;-145.63;50.83;39098.56;5003669;28;20102;-68
2023/11/18 05:16:12;;;;;;;11.73;7.15;;;;;;;-145.63;50.57;39129.84;5004460;28;20022;-69
2023/11/18 05:18:38;;;;;;;9.48;5.88;;;;;;;-145.63;49.99;39102.47;5003962;28;20327;-67
2023/11/18 05:21:05;;;;;;;9.55;5.50;;;;;;;-145.63;50.85;39080.97;5003269;28;20034;-68
2023/11/18 05:23:34;;;;;;;7.75;5.65;;;;;;;-145.63;50.76;39114.22;4998766;28;20023;-67
2023/11/18 05:25:59;;;;;;;10.60;5.35;;;;;;;-145.63;50.61;39108.34;5003130;28;20030;-68
2023/11/18 05:28:25;;;;;;;11.10;5.70;;;;;;;-145.63;50.29;39063.34;4996227;28;20038;-68
2023/11/18 05:30:52;;;;;;;10.48;6.28;;;;;;;-145.63;50.56;39151.38;4993344;28;20041;-68
2023/11/18 05:33:18;;;;;;;10.93;6.45;;;;;;;-145.63;50.19;39110.28;5003474;28;20051;-68
2023/11/18 05:35:51;;;;;;;13.20;7.28;;;;;;;-145.63;50.40;39092.69;5002748;28;20046;-68
2023/11/18 05:38:19;;;;;;;10.20;7.30;;;;;;;-145.63;50.70;39212.00;5004197;28;20053;-68
2023/11/18 05:40:55;;;;;;;12.40;7.10;;;;;;;-145.63;50.72;39120.06;5003552;28;20049;-67
2023/11/18 05:43:29;;;;;;;9.75;6.68;;;;;;;-145.63;50.34;39112.25;5005318;28;20030;-68
2023/11/18 05:46:14;;;;;;;9.18;6.65;;;;;;;-145.63;51.00;39090.75;5004188;28;20022;-68
2023/11/18 05:48:44;;;;;;;9.35;6.55;;;;;;;-145.63;50.91;38809.13;5003327;28;20303;-67
2023/11/18 05:51:11;;;;;;;9.68;6.90;;;;;;;-145.63;49.97;39096.59;5003423;28;20026;-68
2023/11/18 05:53:41;;;;;;;9.52;6.05;;;;;;;-145.63;50.30;39129.84;5001419;28;20041;-68
2023/11/18 05:56:07;;;;;;;11.87;6.67;;;;;;;-145.63;50.66;39118.13;5001201;28;20034;-68
2023/11/18 05:58:34;;;;;;;13.60;6.80;;;;;;;-145.63;50.52;39106.38;4985354;28;20425;-69
2023/11/18 06:00:59;;;;;;;10.05;7.55;;;;;;;-145.63;50.48;39088.78;5003068;28;20230;-69
2023/11/18 06:03:25;;;;;;;11.98;7.60;;;;;;;-145.63;50.72;39079.00;5000430;28;20022;-69
2023/11/18 06:05:51;;;;;;;10.13;7.22;;;;;;;-145.63;51.08;39090.75;5002825;28;20077;-69
2023/11/18 06:08:17;;;;;;;10.18;6.88;;;;;;;-145.63;51.60;39102.47;5002169;28;20045;-68
2023/11/18 06:10:44;;;;;;;12.35;7.00;;;;;;;-145.63;50.83;38942.13;5002832;28;20426;-67
2023/11/18 06:13:16;;;;;;;12.77;7.35;;;;;;;-145.63;50.56;39084.88;5002632;28;20029;-69
2023/11/18 06:15:43;;;;;;;16.60;8.73;;;;;;;-145.63;50.55;39053.59;4999751;28;20294;-68
2023/11/18 06:18:09;;;;;;;21.92;8.40;;;;;;;-145.63;51.35;38809.13;4997448;28;20027;-68
2023/11/18 06:20:35;;;;;;;16.65;7.40;;;;;;;-145.63;50.61;38910.81;4995658;28;20064;-67
2023/11/18 06:23:01;;;;;;;17.75;7.00;;;;;;;-145.63;50.55;39047.72;5001559;28;20326;-66
2023/11/18 06:25:27;;;;;;;12.35;6.70;;;;;;;-145.63;51.36;39063.34;5001802;28;20038;-67
2023/11/18 06:27:52;;;;;;;14.43;7.22;;;;;;;-145.63;50.62;39086.81;5002499;28;20046;-67
2023/11/18 06:30:19;;;;;;;14.13;6.78;;;;;;;-145.63;50.64;39079.00;5002391;28;20199;-67
2023/11/18 06:32:48;;;;;;;14.52;7.32;;;;;;;-145.63;51.27;39075.09;5002448;28;20057;-68
2023/11/18 06:35:17;;;;;;;12.57;6.90;;;;;;;-145.63;50.53;39079.00;5000502;28;20026;-67
2023/11/18 06:37:43;;;;;;;12.20;6.57;;;;;;;-145.63;51.08;39059.44;5002702;28;20018;-67
2023/11/18 06:40:16;;;;;;;12.52;6.22;;;;;;;-145.63;50.32;39075.09;5002344;28;20053;-68
2023/11/18 06:42:47;;;;;;;8.13;5.95;;;;;;;-145.63;49.97;39073.13;4998089;28;20060;-68
2023/11/18 06:45:14;;;;;;;15.80;6.63;;;;;;;-145.63;50.57;39055.53;4998739;28;20337;-68
2023/11/18 06:47:44;;;;;;;14.82;6.60;;;;;;;-145.63;50.45;39069.22;5001972;28;20126;-68
2023/11/18 06:50:14;;;;;;;17.02;6.97;;;;;;;-145.63;50.78;39061.41;5002062;28;20033;-68
2023/11/18 06:52:43;;;;;;;13.43;6.60;;;;;;;-145.63;50.51;39094.66;4998523;28;20072;-66
2023/11/18 06:55:09;;;;;;;14.32;6.15;;;;;;;-145.63;50.02;38916.69;5000752;28;20037;-69
2023/11/18 06:57:35;;;;;;;11.45;6.10;;;;;;;-145.63;50.04;39080.97;5000876;28;20027;-67
2023/11/18 07:00:07;;;;;;;12.90;6.40;;;;;;;-145.63;50.45;39092.69;5001706;28;20326;-69
2023/11/18 07:02:33;;;;;;;;;;;;;;;-145.63;49.96;39075.09;5001855;28;20014;-69
2023/11/18 07:04:58;;;;;;;12.10;5.32;;;;;;;-145.63;50.00;39045.75;5001217;28;20040;-68
2023/11/18 07:07:24;;;;;;;10.07;6.43;;;;;;;-145.63;49.69;39118.13;5002295;28;20093;-67
2023/11/18 07:09:52;;;;;;;10.77;5.68;;;;;;;-145.63;50.64;39000.78;5000907;28;20053;-66
2023/11/18 07:12:19;;;;;;;11.45;6.07;;;;;;;-145.63;49.96;38979.28;4984715;28;20023;-67
2023/11/18 07:14:47;;;;;;;13.32;6.20;;;;;;;-145.63;50.34;39125.94;5001943;28;20049;-67
2023/11/18 07:17:13;;;;;;;11.50;6.10;;;;;;;-145.63;49.36;39206.13;4999024;28;20050;-66
2023/11/18 07:19:39;;;;;;;12.95;6.30;;;;;;;-145.63;49.77;39047.72;5002380;28;20056;-67
2023/11/18 07:22:06;;;;;;;14.05;6.03;;;;;;;-145.63;49.97;39045.75;5000436;28;20072;-67
2023/11/18 07:24:32;;;;;;;10.18;5.85;;;;;;;-145.63;48.90;39120.06;4997104;28;20019;-67
2023/11/18 07:26:59;;;;;;;16.83;6.40;;;;;;;-145.63;48.86;39088.78;5003876;28;20025;-66
2023/11/18 07:29:26;;;;;;;10.63;6.15;;;;;;;-145.63;48.71;39067.28;5002883;28;20019;-69
2023/11/18 07:31:55;;;;;;;10.48;6.18;;;;;;;-145.63;48.33;38858.03;5005699;28;20057;-67
2023/11/18 07:34:23;;;;;;;13.15;6.97;;;;;;;-145.63;49.17;39084.88;5008762;28;20034;-69
2023/11/18 07:36:49;;;;;;;7.55;5.15;;;;;;;-145.63;48.77;39071.19;5003961;28;20041;-70
2023/11/18 07:39:15;;;;;;;15.68;5.55;;;;;;;-145.63;48.54;39106.38;4999295;28;20026;-68
2023/11/18 07:41:42;;;;;;;13.13;5.93;;;;;;;-145.63;48.14;39035.97;5005590;28;20248;-68
2023/11/18 07:44:10;;;;;;;9.18;5.38;;;;;;;-145.63;47.83;39043.81;5003620;28;20136;-68
2023/11/18 07:46:38;;;;;;;13.00;5.80;;;;;;;-145.63;47.31;39026.19;5003428;28;20050;-71
2023/11/18 07:49:04;;;;;;;13.55;6.20;;;;;;;-145.63;47.00;39043.81;4984727;28;20025;-69
2023/11/18 07:51:30;;;;;;;10.52;5.68;;;;;;;-145.63;46.82;39059.44;5005329;28;20030;-67
2023/11/18 07:53:55;;;;;;;11.38;5.70;;;;;;;-145.63;46.37;39035.97;5002893;28;20214;-69
2023/11/18 07:56:24;;;;;;;11.27;5.47;;;;;;;-145.63;46.19;39110.28;5002809;28;20023;-68
2023/11/18 07:58:51;;;;;;;11.18;5.07;;;;;;;-145.63;46.37;39149.41;5004698;28;20030;-68
2023/11/18 08:01:17;;;;;;;10.77;5.20;;;;;;;-145.63;46.03;39080.97;5002830;28;20033;-70
2023/11/18 08:03:43;;;;;;;10.40;5.57;;;;;;;-145.63;45.55;39137.69;5005784;28;20355;-67
2023/11/18 08:06:11;;;;;;;12.60;5.97;;;;;;;-145.63;46.63;39188.53;5005739;28;20026;-65
2023/11/18 08:08:38;;;;;;;11.60;5.80;;;;;;;-145.63;46.71;39262.84;5005217;28;20397;-66
2023/11/18 08:11:06;;;;;;;8.88;5.28;;;;;;;-145.63;46.66;39120.06;5005743;28;20034;-70
2023/11/18 08:13:32;;;;;;;14.88;6.05;;;;;;;-145.63;46.79;39233.50;5003071;28;20019;-70
2023/11/18 08:15:58;;;;;;;14.95;5.85;;;;;;;-145.63;46.51;39102.47;4998620;28;20172;-67
2023/11/18 08:18:24;;;;;;;151.02;16.95;;;;;;;-145.63;46.05;39125.94;5014628;28;20050;-67
2023/11/18 08:20:50;;;;;;;9.55;4.05;;;;;;;-145.63;45.70;39112.25;5004026;28;20038;-68
2023/11/18 08:23:16;;;;;;;12.13;4.63;;;;;;;-145.63;46.32;39073.13;5001350;28;20037;-69
2023/11/18 08:25:42;;;;;;;10.50;3.67;;;;;;;-145.63;46.12;39096.59;4990923;28;20049;-69
2023/11/18 08:28:08;;;;;;;20.10;5.07;;;;;;;-145.63;46.41;39122.03;5000561;28;20034;-69
2023/11/18 08:30:37;;;;;;;11.32;4.07;;;;;;;-145.63;45.92;39053.59;4995695;28;20038;-70
2023/11/18 08:33:09;;;;;;;7.90;3.88;;;;;;;-145.63;45.31;39090.75;5004767;28;20053;-69
2023/11/18 08:35:36;;;;;;;8.10;4.28;;;;;;;-145.63;45.06;39067.28;5004231;28;20172;-67
2023/11/18 08:38:04;;;;;;;10.02;4.07;;;;;;;-145.63;43.87;39090.75;5003136;28;20034;-69
2023/11/18 08:40:30;;;;;;;11.63;3.88;;;;;;;-145.63;43.47;39100.50;5004750;28;20187;-68
2023/11/18 08:42:56;;;;;;;4.70;2.85;;;;;;;-145.63;42.45;39141.59;5004785;28;20031;-68
2023/11/18 08:45:29;;;;;;;5.38;3.10;;;;;;;-145.63;42.01;39086.81;5013775;28;20029;-67
2023/11/18 08:47:56;;;;;;;6.35;3.13;;;;;;;-145.63;42.65;39123.97;5004813;28;20029;-67
2023/11/18 08:50:25;;;;;;;8.73;3.17;;;;;;;-145.63;42.81;39137.69;5004801;28;20033;-69
2023/11/18 08:52:58;;;;;;;6.82;3.30;;;;;;;-145.63;41.82;39157.22;5004561;28;20238;-70
2023/11/18 08:58:15;;;;;;;3.67;2.10;;;;;;;-145.63;41.67;39149.41;4996121;28;20030;-68
2023/11/18 09:00:47;;;;;;;5.00;2.28;;;;;;;-145.63;42.31;39106.38;4990976;28;20026;-68
2023/11/18 09:03:24;;;;;;;4.07;2.33;;;;;;;-145.63;42.16;39092.69;5004421;28;20030;-70
2023/11/18 09:05:58;;;;;;;6.40;2.22;;;;;;;-145.63;41.59;38740.69;4989565;28;20034;-68
2023/11/18 09:08:34;;;;;;;3.80;2.20;;;;;;;-145.63;41.28;39151.38;5004356;28;20030;-68
2023/11/18 09:11:02;;;;;;;6.07;2.38;;;;;;;-145.63;42.01;39133.75;5004004;28;20061;-69
2023/11/18 09:13:28;;;;;;;5.90;2.53;;;;;;;-145.63;42.46;39155.28;5000672;28;20050;-69
2023/11/18 09:16:08;;;;;;;7.40;3.13;;;;;;;-145.63;42.12;39172.88;5000500;28;20034;-68
2023/11/18 09:18:35;;;;;;;4.90;2.47;;;;;;;-145.63;41.95;39034.03;5001306;28;20030;-67
2023/11/18 09:21:02;;;;;;;7.47;2.88;;;;;;;-145.63;42.50;39102.47;5003301;28;20022;-69
2023/11/18 09:23:29;;;;;;;7.53;3.50;;;;;;;-145.63;43.28;39120.06;4998416;28;20483;-69
2023/11/18 09:25:55;;;;;;;6.95;2.90;;;;;;;-145.63;42.71;39168.97;4998045;28;20108;-68
2023/11/18 09:28:24;;;;;;;6.80;2.95;;;;;;;-145.63;42.92;38728.97;4999209;28;20026;-67
2023/11/18 09:30:53;;;;;;;6.72;3.22;;;;;;;-145.63;43.51;39157.22;4992092;28;20097;-67
2023/11/18 09:33:25;;;;;;;4.57;3.28;;;;;;;-145.63;43.37;39131.81;5003510;28;20105;-67
2023/11/18 09:35:58;;;;;;;6.97;3.88;;;;;;;-145.63;43.91;39141.59;5000694;28;20048;-67
2023/11/18 09:38:32;;;;;;;7.13;3.92;;;;;;;-145.63;42.98;39260.88;4996753;28;20037;-68
2023/11/18 09:41:02;;;;;;;9.00;4.18;;;;;;;-145.63;43.24;39123.97;5000879;28;20030;-67
2023/11/18 09:43:32;;;;;;;5.85;3.35;;;;;;;-145.63;43.06;39129.84;5002246;28;20054;-66
2023/11/18 09:46:12;;;;;;;6.80;4.07;;;;;;;-145.63;42.18;39133.75;5002229;28;20328;-66
2023/11/18 09:48:59;;;;;;;7.00;3.95;;;;;;;-145.63;43.11;39174.84;5003005;28;20026;-66
2023/11/18 09:51:30;;;;;;;5.53;3.40;;;;;;;-145.63;42.77;39139.63;5003788;28;20036;-67
2023/11/18 09:54:00;;;;;;;7.88;3.88;;;;;;;-145.63;43.07;39063.34;5003677;28;20336;-67
2023/11/18 09:56:38;;;;;;;7.70;4.07;;;;;;;-145.63;43.26;39118.13;5003491;28;20031;-67
2023/11/18 09:59:19;;;;;;;9.95;5.15;;;;;;;-145.63;42.02;39266.75;5003166;28;20026;-66
2023/11/18 10:01:53;;;;;;;6.43;4.25;;;;;;;-145.63;43.17;39110.28;4997497;28;20635;-67
2023/11/18 10:04:20;;;;;;;9.52;4.30;;;;;;;-145.63;43.14;39129.84;4993668;28;20054;-69
2023/11/18 10:06:48;;;;;;;7.47;4.20;;;;;;;-145.63;42.72;39133.75;4997117;28;20124;-66
2023/11/18 10:09:19;;;;;;;7.93;4.10;;;;;;;-145.63;42.73;39204.16;4996859;28;20037;-66
2023/11/18 10:11:47;;;;;;;8.93;6.32;;;;;;;-145.63;42.35;39161.13;5002054;28;20033;-67
2023/11/18 10:14:16;;;;;;;8.45;4.20;;;;;;;-145.63;42.45;39147.44;5001371;28;20335;-66
2023/11/18 10:16:46;;;;;;;9.93;3.80;;;;;;;-145.63;42.99;39122.03;5002588;28;20032;-67
2023/11/18 10:19:14;;;;;;;8.38;4.40;;;;;;;-145.63;43.22;39147.44;4998468;28;20026;-67
2023/11/18 10:21:40;;;;;;;9.10;3.97;;;;;;;-145.63;43.76;39131.81;5001995;28;20093;-65
2023/11/18 10:24:19;;;;;;;10.93;4.25;;;;;;;-145.63;43.59;39135.72;4993662;28;20030;-67
2023/11/18 10:26:58;;;;;;;10.13;5.25;;;;;;;-145.63;43.21;39157.22;4996262;28;20271;-66
2023/11/18 10:29:28;;;;;;;9.75;4.40;;;;;;;-145.63;41.91;39159.19;5002741;28;20022;-67
2023/11/18 10:32:15;;;;;;;8.60;4.60;;;;;;;-145.63;42.96;39165.06;5002231;28;20034;-66
2023/11/18 10:34:42;;;;;;;7.38;3.33;;;;;;;-145.63;41.00;39110.28;4994136;28;20073;-68
2023/11/18 10:37:10;;;;;;;5.25;3.00;;;;;;;-145.63;40.04;39155.28;5000279;28;20022;-66
2023/11/18 10:39:36;;;;;;;8.82;4.10;;;;;;;-145.63;40.95;39131.81;4996627;28;20069;-65
2023/11/18 10:42:03;;;;;;;7.15;4.47;;;;;;;-145.63;41.10;39123.97;5000503;28;20306;-66
2023/11/18 10:44:29;;;;;;;7.38;4.00;;;;;;;-145.63;41.84;39176.78;5001985;28;20050;-66
2023/11/18 10:46:58;;;;;;;7.13;4.30;;;;;;;-145.63;41.40;39168.97;4999546;28;20023;-65
2023/11/18 10:49:36;;;;;;;8.63;4.40;;;;;;;-145.63;41.30;39151.38;4999861;28;20050;-65
2023/11/18 10:52:06;;;;;;;7.18;3.97;;;;;;;-145.63;41.38;39141.59;5007961;28;20090;-66
2023/11/18 10:54:33;;;;;;;8.20;4.32;;;;;;;-145.63;40.74;39153.31;5011320;28;20306;-66
2023/11/18 10:57:07;;;;;;;7.53;4.38;;;;;;;-145.63;40.87;39176.78;5007885;28;20030;-65
2023/11/18 10:59:33;;;;;;;8.35;4.00;;;;;;;-145.63;40.86;39016.44;5002395;28;20033;-66
2023/11/18 11:01:58;;;;;;;8.10;4.28;;;;;;;-145.63;40.67;39125.94;4999894;28;20044;-65
2023/11/18 11:04:43;;;;;;;13.68;4.78;;;;;;;-145.63;40.17;39170.91;5006714;28;20094;-68
2023/11/18 11:07:10;;;;;;;12.82;4.57;;;;;;;-145.63;40.25;39143.53;5016318;28;20544;-66
2023/11/18 11:09:37;;;;;;;7.50;4.15;;;;;;;-145.63;40.30;39145.50;5006557;28;20086;-65
2023/11/18 11:12:14;;;;;;;10.25;4.13;;;;;;;-145.63;39.63;39159.19;4984084;28;20038;-67
2023/11/18 11:14:59;;;;;;;7.15;4.15;;;;;;;-145.63;39.76;39135.72;5001592;28;20018;-66
2023/11/18 11:17:29;;;;;;;14.75;4.75;;;;;;;-145.63;39.56;39145.50;5005437;28;20019;-68
2023/11/18 11:20:11;;;;;;;11.52;4.50;;;;;;;-145.63;39.71;39176.78;5003611;28;20026;-67